sensor_id;sensor_type;location;lat;lon;timestamp;P1;durP1;ratioP1;P2;durP2;ratioP2
6336;SDS011;3201;49.962;11.618;2022-10-15T00:01:30;2.80;;;2.60;;
6336;SDS011;3201;49.962;11.618;2022-10-15T00:03:56;2.40;;;2.20;;
6336;SDS011;3201;49.962;11.618;2022-10-15T00:06:21;3.20;;;2.30;;
6336;SDS011;3201;49.962;11.618;2022-10-15T00:08:47;2.70;;;2.50;;
6336;SDS011;3201;49.962;11.618;2022-10-15T00:11:14;2.80;;;2.53;;
6336;SDS011;3201;49.962;11.618;2022-10-15T00:13:42;2.80;;;2.50;;
6336;SDS011;3201;49.962;11.618;2022-10-15T00:16:08;2.93;;;2.73;;
6336;SDS011;3201;49.962;11.618;2022-10-15T00:18:37;3.00;;;2.70;;
6336;SDS011;3201;49.962;11.618;2022-10-15T00:21:04;3.10;;;2.80;;
6336;SDS011;3201;49.962;11.618;2022-10-15T00:23:31;3.27;;;2.47;;
6336;SDS011;3201;49.962;11.618;2022-10-15T00:26:02;2.63;;;2.37;;
6336;SDS011;3201;49.962;11.618;2022-10-15T00:28:29;3.80;;;2.77;;
6336;SDS011;3201;49.962;11.618;2022-10-15T00:30:58;3.30;;;3.00;;
6336;SDS011;3201;49.962;11.618;2022-10-15T00:33:25;2.60;;;2.40;;
6336;SDS011;3201;49.962;11.618;2022-10-15T00:35:59;3.00;;;2.70;;
6336;SDS011;3201;49.962;11.618;2022-10-15T00:38:26;2.53;;;2.33;;
6336;SDS011;3201;49.962;11.618;2022-10-15T00:40:55;3.80;;;2.70;;
6336;SDS011;3201;49.962;11.618;2022-10-15T00:43:37;5.20;;;2.67;;
6336;SDS011;3201;49.962;11.618;2022-10-15T00:46:05;3.43;;;3.10;;
6336;SDS011;3201;49.962;11.618;2022-10-15T00:48:40;2.70;;;2.50;;
6336;SDS011;3201;49.962;11.618;2022-10-15T00:51:05;2.83;;;2.50;;
6336;SDS011;3201;49.962;11.618;2022-10-15T00:53:30;2.20;;;2.00;;
6336;SDS011;3201;49.962;11.618;2022-10-15T00:55:56;2.43;;;2.17;;
6336;SDS011;3201;49.962;11.618;2022-10-15T00:58:23;4.77;;;2.97;;
6336;SDS011;3201;49.962;11.618;2022-10-15T01:00:53;4.07;;;2.53;;
6336;SDS011;3201;49.962;11.618;2022-10-15T01:03:19;5.40;;;2.57;;
6336;SDS011;3201;49.962;11.618;2022-10-15T01:05:46;2.73;;;2.50;;
6336;SDS011;3201;49.962;11.618;2022-10-15T01:08:13;2.33;;;2.13;;
6336;SDS011;3201;49.962;11.618;2022-10-15T01:10:43;2.47;;;2.27;;
6336;SDS011;3201;49.962;11.618;2022-10-15T01:13:21;3.27;;;2.97;;
6336;SDS011;3201;49.962;11.618;2022-10-15T01:15:52;2.40;;;2.20;;
6336;SDS011;3201;49.962;11.618;2022-10-15T01:18:27;2.23;;;2.07;;
6336;SDS011;3201;49.962;11.618;2022-10-15T01:21:15;3.23;;;2.83;;
6336;SDS011;3201;49.962;11.618;2022-10-15T01:34:23;3.83;;;2.70;;
6336;SDS011;3201;49.962;11.618;2022-10-15T01:37:17;3.93;;;2.60;;
6336;SDS011;3201;49.962;11.618;2022-10-15T01:39:49;2.50;;;2.30;;
6336;SDS011;3201;49.962;11.618;2022-10-15T01:42:20;5.50;;;2.80;;
6336;SDS011;3201;49.962;11.618;2022-10-15T01:44:50;2.77;;;2.50;;
6336;SDS011;3201;49.962;11.618;2022-10-15T01:47:22;3.07;;;2.67;;
6336;SDS011;3201;49.962;11.618;2022-10-15T01:49:50;3.00;;;2.73;;
6336;SDS011;3201;49.962;11.618;2022-10-15T01:52:19;2.73;;;2.53;;
6336;SDS011;3201;49.962;11.618;2022-10-15T01:54:47;5.97;;;2.80;;
6336;SDS011;3201;49.962;11.618;2022-10-15T01:57:13;2.90;;;2.67;;
6336;SDS011;3201;49.962;11.618;2022-10-15T01:59:40;2.87;;;2.53;;
6336;SDS011;3201;49.962;11.618;2022-10-15T02:02:06;4.00;;;2.90;;
6336;SDS011;3201;49.962;11.618;2022-10-15T02:04:32;2.93;;;2.43;;
6336;SDS011;3201;49.962;11.618;2022-10-15T02:07:01;2.37;;;2.17;;
6336;SDS011;3201;49.962;11.618;2022-10-15T02:12:40;3.10;;;2.43;;
6336;SDS011;3201;49.962;11.618;2022-10-15T02:15:13;2.50;;;2.30;;
6336;SDS011;3201;49.962;11.618;2022-10-15T02:20:28;2.30;;;2.10;;
6336;SDS011;3201;49.962;11.618;2022-10-15T02:23:02;3.80;;;2.90;;
6336;SDS011;3201;49.962;11.618;2022-10-15T02:25:31;2.73;;;2.53;;
6336;SDS011;3201;49.962;11.618;2022-10-15T02:27:57;2.43;;;2.23;;
6336;SDS011;3201;49.962;11.618;2022-10-15T02:30:23;3.30;;;2.17;;
6336;SDS011;3201;49.962;11.618;2022-10-15T02:32:51;2.40;;;2.30;;
6336;SDS011;3201;49.962;11.618;2022-10-15T02:35:18;2.63;;;2.43;;
6336;SDS011;3201;49.962;11.618;2022-10-15T02:37:45;2.50;;;2.30;;
6336;SDS011;3201;49.962;11.618;2022-10-15T02:40:12;2.37;;;2.10;;
6336;SDS011;3201;49.962;11.618;2022-10-15T02:42:38;2.50;;;2.30;;
6336;SDS011;3201;49.962;11.618;2022-10-15T02:45:04;3.00;;;2.63;;
6336;SDS011;3201;49.962;11.618;2022-10-15T02:47:30;2.50;;;2.30;;
6336;SDS011;3201;49.962;11.618;2022-10-15T02:49:55;3.77;;;2.60;;
6336;SDS011;3201;49.962;11.618;2022-10-15T02:52:21;2.73;;;2.27;;
6336;SDS011;3201;49.962;11.618;2022-10-15T02:54:46;3.13;;;2.20;;
6336;SDS011;3201;49.962;11.618;2022-10-15T02:57:12;2.87;;;2.67;;
6336;SDS011;3201;49.962;11.618;2022-10-15T02:59:37;2.63;;;2.43;;
6336;SDS011;3201;49.962;11.618;2022-10-15T03:02:02;2.50;;;2.27;;
6336;SDS011;3201;49.962;11.618;2022-10-15T03:04:28;2.30;;;2.10;;
6336;SDS011;3201;49.962;11.618;2022-10-15T03:06:53;3.50;;;2.10;;
6336;SDS011;3201;49.962;11.618;2022-10-15T03:09:18;2.30;;;2.10;;
6336;SDS011;3201;49.962;11.618;2022-10-15T03:11:44;3.03;;;2.47;;
6336;SDS011;3201;49.962;11.618;2022-10-15T03:14:09;3.97;;;2.83;;
6336;SDS011;3201;49.962;11.618;2022-10-15T03:16:35;2.20;;;1.93;;
6336;SDS011;3201;49.962;11.618;2022-10-15T03:19:00;2.50;;;2.17;;
6336;SDS011;3201;49.962;11.618;2022-10-15T03:21:25;3.23;;;2.30;;
6336;SDS011;3201;49.962;11.618;2022-10-15T03:23:54;2.93;;;2.73;;
6336;SDS011;3201;49.962;11.618;2022-10-15T03:26:21;2.60;;;2.40;;
6336;SDS011;3201;49.962;11.618;2022-10-15T03:28:46;3.83;;;2.90;;
6336;SDS011;3201;49.962;11.618;2022-10-15T03:31:11;2.73;;;2.50;;
6336;SDS011;3201;49.962;11.618;2022-10-15T03:33:38;2.87;;;2.50;;
6336;SDS011;3201;49.962;11.618;2022-10-15T03:36:03;2.40;;;2.20;;
6336;SDS011;3201;49.962;11.618;2022-10-15T03:38:30;2.90;;;2.60;;
6336;SDS011;3201;49.962;11.618;2022-10-15T03:40:56;2.70;;;2.23;;
6336;SDS011;3201;49.962;11.618;2022-10-15T03:43:23;2.63;;;2.20;;
6336;SDS011;3201;49.962;11.618;2022-10-15T03:45:49;2.60;;;2.27;;
6336;SDS011;3201;49.962;11.618;2022-10-15T03:48:16;2.40;;;2.20;;
6336;SDS011;3201;49.962;11.618;2022-10-15T03:50:41;2.37;;;2.17;;
6336;SDS011;3201;49.962;11.618;2022-10-15T03:53:07;2.90;;;2.70;;
6336;SDS011;3201;49.962;11.618;2022-10-15T03:55:32;3.93;;;2.57;;
6336;SDS011;3201;49.962;11.618;2022-10-15T03:57:58;2.43;;;2.23;;
6336;SDS011;3201;49.962;11.618;2022-10-15T04:00:24;2.27;;;1.97;;
6336;SDS011;3201;49.962;11.618;2022-10-15T04:02:50;2.43;;;2.20;;
6336;SDS011;3201;49.962;11.618;2022-10-15T04:05:15;6.03;;;2.23;;
6336;SDS011;3201;49.962;11.618;2022-10-15T04:07:40;2.50;;;2.30;;
6336;SDS011;3201;49.962;11.618;2022-10-15T04:10:07;3.13;;;2.70;;
6336;SDS011;3201;49.962;11.618;2022-10-15T04:12:32;2.40;;;2.20;;
6336;SDS011;3201;49.962;11.618;2022-10-15T04:14:58;2.40;;;2.20;;
6336;SDS011;3201;49.962;11.618;2022-10-15T04:17:23;3.23;;;2.30;;
6336;SDS011;3201;49.962;11.618;2022-10-15T04:19:49;2.20;;;2.00;;
6336;SDS011;3201;49.962;11.618;2022-10-15T04:22:14;3.13;;;2.60;;
6336;SDS011;3201;49.962;11.618;2022-10-15T04:24:39;3.87;;;2.07;;
6336;SDS011;3201;49.962;11.618;2022-10-15T04:27:05;2.83;;;2.63;;
6336;SDS011;3201;49.962;11.618;2022-10-15T04:29:31;2.50;;;2.20;;
6336;SDS011;3201;49.962;11.618;2022-10-15T04:31:57;2.67;;;2.30;;
6336;SDS011;3201;49.962;11.618;2022-10-15T04:34:22;2.97;;;2.40;;
6336;SDS011;3201;49.962;11.618;2022-10-15T04:36:47;2.40;;;2.20;;
6336;SDS011;3201;49.962;11.618;2022-10-15T04:39:13;2.20;;;2.03;;
6336;SDS011;3201;49.962;11.618;2022-10-15T04:41:39;2.80;;;1.83;;
6336;SDS011;3201;49.962;11.618;2022-10-15T04:44:04;2.00;;;1.90;;
6336;SDS011;3201;49.962;11.618;2022-10-15T04:46:30;2.50;;;2.30;;
6336;SDS011;3201;49.962;11.618;2022-10-15T04:48:55;2.60;;;2.40;;
6336;SDS011;3201;49.962;11.618;2022-10-15T04:51:22;2.27;;;1.97;;
6336;SDS011;3201;49.962;11.618;2022-10-15T04:53:48;2.97;;;2.77;;
6336;SDS011;3201;49.962;11.618;2022-10-15T04:56:14;2.43;;;2.23;;
6336;SDS011;3201;49.962;11.618;2022-10-15T04:58:43;2.40;;;2.20;;
6336;SDS011;3201;49.962;11.618;2022-10-15T05:01:10;2.20;;;2.00;;
6336;SDS011;3201;49.962;11.618;2022-10-15T05:03:37;2.40;;;2.20;;
6336;SDS011;3201;49.962;11.618;2022-10-15T05:06:04;2.23;;;2.03;;
6336;SDS011;3201;49.962;11.618;2022-10-15T05:08:31;2.20;;;2.10;;
6336;SDS011;3201;49.962;11.618;2022-10-15T05:11:01;2.77;;;2.57;;
6336;SDS011;3201;49.962;11.618;2022-10-15T05:13:28;2.50;;;2.30;;
6336;SDS011;3201;49.962;11.618;2022-10-15T05:15:54;2.83;;;2.40;;
6336;SDS011;3201;49.962;11.618;2022-10-15T05:18:20;2.10;;;1.90;;
6336;SDS011;3201;49.962;11.618;2022-10-15T05:20:45;2.03;;;1.87;;
6336;SDS011;3201;49.962;11.618;2022-10-15T05:23:10;2.63;;;2.10;;
6336;SDS011;3201;49.962;11.618;2022-10-15T05:25:36;2.30;;;2.10;;
6336;SDS011;3201;49.962;11.618;2022-10-15T05:28:01;2.40;;;2.00;;
6336;SDS011;3201;49.962;11.618;2022-10-15T05:30:27;2.47;;;2.27;;
6336;SDS011;3201;49.962;11.618;2022-10-15T05:32:52;2.77;;;2.57;;
6336;SDS011;3201;49.962;11.618;2022-10-15T05:35:18;2.93;;;2.20;;
6336;SDS011;3201;49.962;11.618;2022-10-15T05:37:44;2.60;;;2.40;;
6336;SDS011;3201;49.962;11.618;2022-10-15T05:40:09;2.60;;;2.33;;
6336;SDS011;3201;49.962;11.618;2022-10-15T05:42:35;2.67;;;2.47;;
6336;SDS011;3201;49.962;11.618;2022-10-15T05:45:01;2.10;;;1.90;;
6336;SDS011;3201;49.962;11.618;2022-10-15T05:47:26;2.07;;;1.80;;
6336;SDS011;3201;49.962;11.618;2022-10-15T05:49:51;2.97;;;2.23;;
6336;SDS011;3201;49.962;11.618;2022-10-15T05:52:17;2.37;;;2.17;;
6336;SDS011;3201;49.962;11.618;2022-10-15T05:54:43;2.20;;;2.10;;
6336;SDS011;3201;49.962;11.618;2022-10-15T05:57:08;2.43;;;2.30;;
6336;SDS011;3201;49.962;11.618;2022-10-15T05:59:34;2.43;;;2.20;;
6336;SDS011;3201;49.962;11.618;2022-10-15T06:01:59;2.10;;;1.90;;
6336;SDS011;3201;49.962;11.618;2022-10-15T06:04:24;2.63;;;2.43;;
6336;SDS011;3201;49.962;11.618;2022-10-15T06:06:50;2.17;;;1.97;;
6336;SDS011;3201;49.962;11.618;2022-10-15T06:09:15;2.80;;;2.20;;
6336;SDS011;3201;49.962;11.618;2022-10-15T06:11:40;2.33;;;2.13;;
6336;SDS011;3201;49.962;11.618;2022-10-15T06:14:06;1.80;;;1.70;;
6336;SDS011;3201;49.962;11.618;2022-10-15T06:16:31;2.20;;;2.00;;
6336;SDS011;3201;49.962;11.618;2022-10-15T06:18:57;2.40;;;2.20;;
6336;SDS011;3201;49.962;11.618;2022-10-15T06:21:22;2.83;;;2.53;;
6336;SDS011;3201;49.962;11.618;2022-10-15T06:23:48;2.27;;;2.07;;
6336;SDS011;3201;49.962;11.618;2022-10-15T06:26:13;1.90;;;1.80;;
6336;SDS011;3201;49.962;11.618;2022-10-15T06:28:39;2.23;;;2.03;;
6336;SDS011;3201;49.962;11.618;2022-10-15T06:31:05;2.43;;;2.23;;
6336;SDS011;3201;49.962;11.618;2022-10-15T06:33:31;2.10;;;2.00;;
6336;SDS011;3201;49.962;11.618;2022-10-15T06:36:05;2.73;;;2.53;;
6336;SDS011;3201;49.962;11.618;2022-10-15T06:38:33;2.10;;;1.93;;
6336;SDS011;3201;49.962;11.618;2022-10-15T06:40:58;2.50;;;2.30;;
6336;SDS011;3201;49.962;11.618;2022-10-15T06:43:24;2.80;;;2.60;;
6336;SDS011;3201;49.962;11.618;2022-10-15T06:45:49;2.10;;;2.00;;
6336;SDS011;3201;49.962;11.618;2022-10-15T06:48:15;2.50;;;2.17;;
6336;SDS011;3201;49.962;11.618;2022-10-15T06:50:40;2.37;;;2.17;;
6336;SDS011;3201;49.962;11.618;2022-10-15T06:53:06;2.50;;;2.30;;
6336;SDS011;3201;49.962;11.618;2022-10-15T06:55:31;2.10;;;1.77;;
6336;SDS011;3201;49.962;11.618;2022-10-15T06:57:57;1.90;;;1.80;;
6336;SDS011;3201;49.962;11.618;2022-10-15T07:00:23;2.60;;;2.40;;
6336;SDS011;3201;49.962;11.618;2022-10-15T07:02:49;1.97;;;1.80;;
6336;SDS011;3201;49.962;11.618;2022-10-15T07:05:15;2.70;;;2.23;;
6336;SDS011;3201;49.962;11.618;2022-10-15T07:07:40;3.77;;;2.27;;
6336;SDS011;3201;49.962;11.618;2022-10-15T07:10:06;1.90;;;1.80;;
6336;SDS011;3201;49.962;11.618;2022-10-15T07:12:33;2.47;;;2.27;;
6336;SDS011;3201;49.962;11.618;2022-10-15T07:14:59;2.37;;;2.17;;
6336;SDS011;3201;49.962;11.618;2022-10-15T07:17:24;2.57;;;2.37;;
6336;SDS011;3201;49.962;11.618;2022-10-15T07:19:50;2.10;;;1.90;;
6336;SDS011;3201;49.962;11.618;2022-10-15T07:22:15;2.00;;;1.90;;
6336;SDS011;3201;49.962;11.618;2022-10-15T07:24:41;2.50;;;2.13;;
6336;SDS011;3201;49.962;11.618;2022-10-15T07:27:06;2.73;;;2.43;;
6336;SDS011;3201;49.962;11.618;2022-10-15T07:29:32;2.13;;;1.97;;
6336;SDS011;3201;49.962;11.618;2022-10-15T07:31:57;2.53;;;2.33;;
6336;SDS011;3201;49.962;11.618;2022-10-15T07:34:23;2.40;;;2.20;;
6336;SDS011;3201;49.962;11.618;2022-10-15T07:36:49;2.20;;;2.00;;
6336;SDS011;3201;49.962;11.618;2022-10-15T07:39:14;2.43;;;2.23;;
6336;SDS011;3201;49.962;11.618;2022-10-15T07:41:43;2.63;;;1.80;;
6336;SDS011;3201;49.962;11.618;2022-10-15T07:44:08;1.77;;;1.67;;
6336;SDS011;3201;49.962;11.618;2022-10-15T07:46:33;2.10;;;1.90;;
6336;SDS011;3201;49.962;11.618;2022-10-15T07:48:59;2.40;;;2.20;;
6336;SDS011;3201;49.962;11.618;2022-10-15T07:51:25;2.37;;;2.17;;
6336;SDS011;3201;49.962;11.618;2022-10-15T07:53:50;1.60;;;1.50;;
6336;SDS011;3201;49.962;11.618;2022-10-15T07:56:16;2.33;;;2.13;;
6336;SDS011;3201;49.962;11.618;2022-10-15T07:58:42;1.73;;;1.63;;
6336;SDS011;3201;49.962;11.618;2022-10-15T08:01:08;3.33;;;1.93;;
6336;SDS011;3201;49.962;11.618;2022-10-15T08:03:35;2.47;;;2.10;;
6336;SDS011;3201;49.962;11.618;2022-10-15T08:06:02;2.03;;;1.80;;
6336;SDS011;3201;49.962;11.618;2022-10-15T08:08:28;2.30;;;2.10;;
6336;SDS011;3201;49.962;11.618;2022-10-15T08:10:54;2.33;;;1.80;;
6336;SDS011;3201;49.962;11.618;2022-10-15T08:13:20;2.10;;;1.70;;
6336;SDS011;3201;49.962;11.618;2022-10-15T08:15:45;1.97;;;1.80;;
6336;SDS011;3201;49.962;11.618;2022-10-15T08:18:11;2.00;;;1.70;;
6336;SDS011;3201;49.962;11.618;2022-10-15T08:20:36;1.93;;;1.80;;
6336;SDS011;3201;49.962;11.618;2022-10-15T08:23:02;2.20;;;2.00;;
6336;SDS011;3201;49.962;11.618;2022-10-15T08:25:28;2.33;;;2.13;;
6336;SDS011;3201;49.962;11.618;2022-10-15T08:27:56;2.10;;;1.90;;
6336;SDS011;3201;49.962;11.618;2022-10-15T08:30:21;2.27;;;2.03;;
6336;SDS011;3201;49.962;11.618;2022-10-15T08:32:47;2.60;;;2.40;;
6336;SDS011;3201;49.962;11.618;2022-10-15T08:35:12;1.93;;;1.77;;
6336;SDS011;3201;49.962;11.618;2022-10-15T08:37:37;2.27;;;2.07;;
6336;SDS011;3201;49.962;11.618;2022-10-15T08:40:03;2.20;;;2.10;;
6336;SDS011;3201;49.962;11.618;2022-10-15T08:42:31;1.73;;;1.60;;
6336;SDS011;3201;49.962;11.618;2022-10-15T08:45:04;2.00;;;1.83;;
6336;SDS011;3201;49.962;11.618;2022-10-15T08:47:37;2.47;;;2.27;;
6336;SDS011;3201;49.962;11.618;2022-10-15T08:50:11;2.17;;;1.97;;
6336;SDS011;3201;49.962;11.618;2022-10-15T08:52:42;2.13;;;1.77;;
6336;SDS011;3201;49.962;11.618;2022-10-15T08:55:11;2.20;;;2.00;;
6336;SDS011;3201;49.962;11.618;2022-10-15T08:57:45;1.87;;;1.77;;
6336;SDS011;3201;49.962;11.618;2022-10-15T09:00:22;2.17;;;1.97;;
6336;SDS011;3201;49.962;11.618;2022-10-15T09:08:13;2.03;;;1.83;;
6336;SDS011;3201;49.962;11.618;2022-10-15T09:10:50;2.07;;;1.97;;
6336;SDS011;3201;49.962;11.618;2022-10-15T09:13:23;2.33;;;2.13;;
6336;SDS011;3201;49.962;11.618;2022-10-15T09:16:50;2.13;;;1.93;;
6336;SDS011;3201;49.962;11.618;2022-10-15T09:18:41;2.60;;;1.73;;
6336;SDS011;3201;49.962;11.618;2022-10-15T09:21:12;1.70;;;1.60;;
6336;SDS011;3201;49.962;11.618;2022-10-15T09:23:38;2.20;;;2.00;;
6336;SDS011;3201;49.962;11.618;2022-10-15T09:31:19;2.07;;;1.87;;
6336;SDS011;3201;49.962;11.618;2022-10-15T09:33:50;2.10;;;1.90;;
6336;SDS011;3201;49.962;11.618;2022-10-15T09:42:12;1.63;;;1.53;;
6336;SDS011;3201;49.962;11.618;2022-10-15T09:44:33;2.23;;;2.03;;
6336;SDS011;3201;49.962;11.618;2022-10-15T09:47:06;1.77;;;1.67;;
6336;SDS011;3201;49.962;11.618;2022-10-15T09:49:39;2.17;;;1.97;;
6336;SDS011;3201;49.962;11.618;2022-10-15T09:52:06;2.17;;;1.90;;
6336;SDS011;3201;49.962;11.618;2022-10-15T09:55:02;2.33;;;2.13;;
6336;SDS011;3201;49.962;11.618;2022-10-15T09:57:34;2.20;;;2.00;;
6336;SDS011;3201;49.962;11.618;2022-10-15T10:00:01;1.83;;;1.70;;
6336;SDS011;3201;49.962;11.618;2022-10-15T10:02:30;2.40;;;2.20;;
6336;SDS011;3201;49.962;11.618;2022-10-15T10:04:55;2.40;;;2.20;;
6336;SDS011;3201;49.962;11.618;2022-10-15T10:09:57;2.27;;;2.07;;
6336;SDS011;3201;49.962;11.618;2022-10-15T10:12:25;1.90;;;1.80;;
6336;SDS011;3201;49.962;11.618;2022-10-15T10:14:53;2.03;;;1.83;;
6336;SDS011;3201;49.962;11.618;2022-10-15T10:17:22;2.00;;;1.80;;
6336;SDS011;3201;49.962;11.618;2022-10-15T10:20:21;2.00;;;1.87;;
6336;SDS011;3201;49.962;11.618;2022-10-15T10:22:45;1.73;;;1.63;;
6336;SDS011;3201;49.962;11.618;2022-10-15T10:25:29;2.17;;;1.93;;
6336;SDS011;3201;49.962;11.618;2022-10-15T10:30:33;3.43;;;1.80;;
6336;SDS011;3201;49.962;11.618;2022-10-15T10:33:00;1.73;;;1.63;;
6336;SDS011;3201;49.962;11.618;2022-10-15T10:35:33;2.60;;;2.40;;
6336;SDS011;3201;49.962;11.618;2022-10-15T10:38:01;2.00;;;1.83;;
6336;SDS011;3201;49.962;11.618;2022-10-15T10:40:28;2.03;;;1.73;;
6336;SDS011;3201;49.962;11.618;2022-10-15T10:43:28;1.40;;;1.30;;
6336;SDS011;3201;49.962;11.618;2022-10-15T10:45:59;1.80;;;1.70;;
6336;SDS011;3201;49.962;11.618;2022-10-15T10:48:28;1.50;;;1.40;;
6336;SDS011;3201;49.962;11.618;2022-10-15T10:51:05;1.87;;;1.70;;
6336;SDS011;3201;49.962;11.618;2022-10-15T10:53:33;2.07;;;1.87;;
6336;SDS011;3201;49.962;11.618;2022-10-15T10:56:01;1.80;;;1.70;;
6336;SDS011;3201;49.962;11.618;2022-10-15T10:58:28;1.57;;;1.47;;
6336;SDS011;3201;49.962;11.618;2022-10-15T11:00:57;2.20;;;2.00;;
6336;SDS011;3201;49.962;11.618;2022-10-15T11:14:46;1.63;;;1.53;;
6336;SDS011;3201;49.962;11.618;2022-10-15T11:19:24;1.93;;;1.70;;
6336;SDS011;3201;49.962;11.618;2022-10-15T11:24:23;1.70;;;1.60;;
6336;SDS011;3201;49.962;11.618;2022-10-15T11:28:55;1.80;;;1.70;;
6336;SDS011;3201;49.962;11.618;2022-10-15T11:30:03;1.70;;;1.60;;
6336;SDS011;3201;49.962;11.618;2022-10-15T11:32:36;2.17;;;1.80;;
6336;SDS011;3201;49.962;11.618;2022-10-15T11:38:15;1.57;;;1.47;;
6336;SDS011;3201;49.962;11.618;2022-10-15T11:40:50;2.07;;;1.70;;
6336;SDS011;3201;49.962;11.618;2022-10-15T11:46:32;3.60;;;1.67;;
6336;SDS011;3201;49.962;11.618;2022-10-15T11:49:14;1.63;;;1.53;;
6336;SDS011;3201;49.962;11.618;2022-10-15T11:54:21;2.00;;;1.77;;
6336;SDS011;3201;49.962;11.618;2022-10-15T11:57:25;1.77;;;1.40;;
6336;SDS011;3201;49.962;11.618;2022-10-15T11:59:54;1.50;;;1.40;;
6336;SDS011;3201;49.962;11.618;2022-10-15T12:02:27;1.47;;;1.37;;
6336;SDS011;3201;49.962;11.618;2022-10-15T12:04:55;1.33;;;1.23;;
6336;SDS011;3201;49.962;11.618;2022-10-15T12:07:26;1.70;;;1.60;;
6336;SDS011;3201;49.962;11.618;2022-10-15T12:09:56;1.80;;;1.70;;
6336;SDS011;3201;49.962;11.618;2022-10-15T12:12:39;2.30;;;2.10;;
6336;SDS011;3201;49.962;11.618;2022-10-15T12:18:02;1.60;;;1.50;;
6336;SDS011;3201;49.962;11.618;2022-10-15T12:20:34;2.07;;;1.70;;
6336;SDS011;3201;49.962;11.618;2022-10-15T12:23:02;1.93;;;1.83;;
6336;SDS011;3201;49.962;11.618;2022-10-15T12:30:36;1.80;;;1.70;;
6336;SDS011;3201;49.962;11.618;2022-10-15T12:33:03;1.50;;;1.40;;
6336;SDS011;3201;49.962;11.618;2022-10-15T12:35:56;1.80;;;1.50;;
6336;SDS011;3201;49.962;11.618;2022-10-15T12:38:26;2.13;;;1.70;;
6336;SDS011;3201;49.962;11.618;2022-10-15T12:40:55;1.87;;;1.70;;
6336;SDS011;3201;49.962;11.618;2022-10-15T12:43:23;4.23;;;1.70;;
6336;SDS011;3201;49.962;11.618;2022-10-15T12:45:51;1.60;;;1.50;;
6336;SDS011;3201;49.962;11.618;2022-10-15T12:48:20;1.67;;;1.40;;
6336;SDS011;3201;49.962;11.618;2022-10-15T12:51:11;1.70;;;1.60;;
6336;SDS011;3201;49.962;11.618;2022-10-15T12:53:53;1.30;;;1.20;;
6336;SDS011;3201;49.962;11.618;2022-10-15T12:56:23;1.70;;;1.40;;
6336;SDS011;3201;49.962;11.618;2022-10-15T12:58:50;1.90;;;1.37;;
6336;SDS011;3201;49.962;11.618;2022-10-15T13:08:49;1.70;;;1.60;;
6336;SDS011;3201;49.962;11.618;2022-10-15T13:11:24;1.47;;;1.37;;
6336;SDS011;3201;49.962;11.618;2022-10-15T13:13:55;2.47;;;1.60;;
6336;SDS011;3201;49.962;11.618;2022-10-15T13:16:23;1.67;;;1.57;;
6336;SDS011;3201;49.962;11.618;2022-10-15T13:18:51;1.77;;;1.67;;
6336;SDS011;3201;49.962;11.618;2022-10-15T13:21:18;1.53;;;1.43;;
6336;SDS011;3201;49.962;11.618;2022-10-15T13:23:45;1.40;;;1.30;;
6336;SDS011;3201;49.962;11.618;2022-10-15T13:26:20;2.10;;;1.90;;
6336;SDS011;3201;49.962;11.618;2022-10-15T13:28:47;1.87;;;1.77;;
6336;SDS011;3201;49.962;11.618;2022-10-15T13:31:30;1.50;;;1.40;;
6336;SDS011;3201;49.962;11.618;2022-10-15T13:33:58;2.03;;;1.63;;
6336;SDS011;3201;49.962;11.618;2022-10-15T13:36:29;1.73;;;1.40;;
6336;SDS011;3201;49.962;11.618;2022-10-15T13:38:57;1.83;;;1.33;;
6336;SDS011;3201;49.962;11.618;2022-10-15T13:41:25;1.60;;;1.50;;
6336;SDS011;3201;49.962;11.618;2022-10-15T13:43:53;1.60;;;1.40;;
6336;SDS011;3201;49.962;11.618;2022-10-15T13:46:23;1.30;;;1.20;;
6336;SDS011;3201;49.962;11.618;2022-10-15T13:48:51;2.77;;;1.70;;
6336;SDS011;3201;49.962;11.618;2022-10-15T13:51:21;1.73;;;1.63;;
6336;SDS011;3201;49.962;11.618;2022-10-15T13:53:46;1.60;;;1.47;;
6336;SDS011;3201;49.962;11.618;2022-10-15T13:56:19;2.10;;;1.60;;
6336;SDS011;3201;49.962;11.618;2022-10-15T13:58:49;1.40;;;1.30;;
6336;SDS011;3201;49.962;11.618;2022-10-15T14:01:15;1.20;;;1.10;;
6336;SDS011;3201;49.962;11.618;2022-10-15T14:03:50;1.83;;;1.30;;
6336;SDS011;3201;49.962;11.618;2022-10-15T14:08:46;1.60;;;1.50;;
6336;SDS011;3201;49.962;11.618;2022-10-15T14:11:14;1.67;;;1.57;;
6336;SDS011;3201;49.962;11.618;2022-10-15T14:13:56;2.70;;;2.10;;
6336;SDS011;3201;49.962;11.618;2022-10-15T14:16:23;1.63;;;1.30;;
6336;SDS011;3201;49.962;11.618;2022-10-15T14:18:53;2.40;;;1.13;;
6336;SDS011;3201;49.962;11.618;2022-10-15T14:21:21;1.70;;;1.60;;
6336;SDS011;3201;49.962;11.618;2022-10-15T14:24:00;1.70;;;1.60;;
6336;SDS011;3201;49.962;11.618;2022-10-15T14:26:27;1.50;;;1.40;;
6336;SDS011;3201;49.962;11.618;2022-10-15T14:28:53;3.43;;;1.43;;
6336;SDS011;3201;49.962;11.618;2022-10-15T14:31:25;1.67;;;1.57;;
6336;SDS011;3201;49.962;11.618;2022-10-15T14:33:54;1.40;;;1.30;;
6336;SDS011;3201;49.962;11.618;2022-10-15T14:38:48;1.53;;;1.43;;
6336;SDS011;3201;49.962;11.618;2022-10-15T14:41:30;1.17;;;1.07;;
6336;SDS011;3201;49.962;11.618;2022-10-15T14:46:40;1.40;;;1.30;;
6336;SDS011;3201;49.962;11.618;2022-10-15T14:49:23;1.63;;;1.53;;
6336;SDS011;3201;49.962;11.618;2022-10-15T14:51:52;3.00;;;1.73;;
6336;SDS011;3201;49.962;11.618;2022-10-15T14:54:19;2.83;;;1.33;;
6336;SDS011;3201;49.962;11.618;2022-10-15T14:56:48;1.80;;;1.70;;
6336;SDS011;3201;49.962;11.618;2022-10-15T14:59:16;4.60;;;1.30;;
6336;SDS011;3201;49.962;11.618;2022-10-15T15:01:51;1.60;;;1.50;;
6336;SDS011;3201;49.962;11.618;2022-10-15T15:04:34;2.00;;;1.57;;
6336;SDS011;3201;49.962;11.618;2022-10-15T15:07:05;2.63;;;1.50;;
6336;SDS011;3201;49.962;11.618;2022-10-15T15:09:40;1.70;;;1.60;;
6336;SDS011;3201;49.962;11.618;2022-10-15T15:12:08;2.03;;;1.37;;
6336;SDS011;3201;49.962;11.618;2022-10-15T15:14:38;1.63;;;1.53;;
6336;SDS011;3201;49.962;11.618;2022-10-15T15:17:03;2.17;;;1.80;;
6336;SDS011;3201;49.962;11.618;2022-10-15T15:19:29;1.93;;;1.50;;
6336;SDS011;3201;49.962;11.618;2022-10-15T15:21:54;5.13;;;1.67;;
6336;SDS011;3201;49.962;11.618;2022-10-15T15:24:20;1.50;;;1.40;;
6336;SDS011;3201;49.962;11.618;2022-10-15T15:26:45;2.00;;;1.80;;
6336;SDS011;3201;49.962;11.618;2022-10-15T15:29:11;1.70;;;1.60;;
6336;SDS011;3201;49.962;11.618;2022-10-15T15:31:37;1.70;;;1.53;;
6336;SDS011;3201;49.962;11.618;2022-10-15T15:34:03;1.60;;;1.50;;
6336;SDS011;3201;49.962;11.618;2022-10-15T15:36:28;3.53;;;1.53;;
6336;SDS011;3201;49.962;11.618;2022-10-15T15:38:54;1.83;;;1.57;;
6336;SDS011;3201;49.962;11.618;2022-10-15T15:41:23;1.60;;;1.50;;
6336;SDS011;3201;49.962;11.618;2022-10-15T15:43:50;1.80;;;1.40;;
6336;SDS011;3201;49.962;11.618;2022-10-15T15:46:16;1.70;;;1.60;;
6336;SDS011;3201;49.962;11.618;2022-10-15T15:48:42;2.17;;;1.87;;
6336;SDS011;3201;49.962;11.618;2022-10-15T15:53:44;1.60;;;1.50;;
6336;SDS011;3201;49.962;11.618;2022-10-15T15:56:09;2.47;;;1.60;;
6336;SDS011;3201;49.962;11.618;2022-10-15T15:58:35;1.70;;;1.60;;
6336;SDS011;3201;49.962;11.618;2022-10-15T16:01:00;2.30;;;1.77;;
6336;SDS011;3201;49.962;11.618;2022-10-15T16:03:26;2.20;;;1.90;;
6336;SDS011;3201;49.962;11.618;2022-10-15T16:05:51;1.53;;;1.43;;
6336;SDS011;3201;49.962;11.618;2022-10-15T16:08:16;1.87;;;1.60;;
6336;SDS011;3201;49.962;11.618;2022-10-15T16:10:42;1.70;;;1.60;;
6336;SDS011;3201;49.962;11.618;2022-10-15T16:13:07;1.43;;;1.33;;
6336;SDS011;3201;49.962;11.618;2022-10-15T16:15:33;4.17;;;1.53;;
6336;SDS011;3201;49.962;11.618;2022-10-15T16:17:58;1.33;;;1.23;;
6336;SDS011;3201;49.962;11.618;2022-10-15T16:20:23;1.63;;;1.37;;
6336;SDS011;3201;49.962;11.618;2022-10-15T16:22:50;1.87;;;0.90;;
6336;SDS011;3201;49.962;11.618;2022-10-15T16:25:16;1.60;;;1.50;;
6336;SDS011;3201;49.962;11.618;2022-10-15T16:27:42;2.50;;;2.00;;
6336;SDS011;3201;49.962;11.618;2022-10-15T16:30:12;1.67;;;1.57;;
6336;SDS011;3201;49.962;11.618;2022-10-15T16:32:38;1.53;;;1.43;;
6336;SDS011;3201;49.962;11.618;2022-10-15T16:35:04;1.40;;;1.20;;
6336;SDS011;3201;49.962;11.618;2022-10-15T16:37:29;1.43;;;1.33;;